Time;durP1;ratioP1;P1;durP2;ratioP2;P2;SDS_P1;SDS_P2;PMS_P1;PMS_P2;Temp;Humidity;BMP_temperature;BMP_pressure;BME280_temperature;BME280_humidity;BME280_pressure;Samples;Min_cycle;Max_cycle;Signal;HPM_P1;HPM_P2
2021/01/19 00:00:24;;;;;;;2.45;1.70;;;;;;;9.57;91.31;99606.06;4417204;32;20461;-77
2021/01/19 00:02:50;;;;;;;3.40;1.52;;;;;;;9.64;91.34;99596.59;4416360;32;20053;-77
2021/01/19 00:05:15;;;;;;;1.87;1.45;;;;;;;9.69;91.82;99590.37;4416993;32;20467;-76
2021/01/19 00:07:41;;;;;;;4.55;3.72;;;;;;;9.75;91.04;99588.53;4416042;32;20050;-77
2021/01/19 00:10:07;;;;;;;2.75;1.90;;;;;;;9.81;90.81;99575.44;4411951;32;20069;-75
2021/01/19 00:12:34;;;;;;;3.15;1.70;;;;;;;9.84;90.81;99574.53;4412959;32;20092;-78
2021/01/19 00:14:59;;;;;;;5.22;1.80;;;;;;;9.81;91.18;99558.59;4413992;32;20049;-77
2021/01/19 00:17:25;;;;;;;3.08;2.05;;;;;;;9.86;91.24;99555.19;4413967;32;20064;-76
2021/01/19 00:19:51;;;;;;;6.28;3.03;;;;;;;9.83;91.04;99561.72;4414484;32;20029;-77
2021/01/19 00:22:16;;;;;;;4.03;2.15;;;;;;;9.79;90.50;99556.25;4411717;32;20026;-78
2021/01/19 00:24:42;;;;;;;3.08;2.15;;;;;;;9.93;90.25;99549.28;4416281;32;20442;-78
2021/01/19 00:27:08;;;;;;;4.55;2.03;;;;;;;9.93;90.44;99536.03;4414972;32;20412;-78
2021/01/19 00:29:33;;;;;;;3.28;2.30;;;;;;;9.85;90.81;99528.34;4407388;32;20584;-77
2021/01/19 00:31:59;;;;;;;3.50;2.55;;;;;;;9.92;91.62;99522.44;4415404;32;20069;-76
2021/01/19 00:34:25;;;;;;;3.65;2.40;;;;;;;9.93;91.50;99504.31;4417746;32;20124;-77
2021/01/19 00:36:51;;;;;;;4.47;2.35;;;;;;;9.99;91.41;99505.28;4414599;32;20073;-77
2021/01/19 00:39:16;;;;;;;3.97;2.72;;;;;;;9.82;91.57;99507.56;4414900;32;20064;-77
2021/01/19 00:41:42;;;;;;;4.95;2.60;;;;;;;9.88;91.44;99488.09;4419937;32;20096;-74
2021/01/19 00:44:08;;;;;;;4.18;2.90;;;;;;;9.87;91.12;99480.88;4419704;32;20081;-77
2021/01/19 00:46:34;;;;;;;4.25;3.10;;;;;;;9.94;91.58;99484.19;4417472;32;20031;-75
2021/01/19 00:49:00;;;;;;;4.37;3.00;;;;;;;10.01;91.28;99478.25;4417063;32;20053;-76
2021/01/19 00:51:33;;;;;;;5.07;3.17;;;;;;;10.06;90.62;99472.06;4418153;32;20038;-77
2021/01/19 00:53:58;;;;;;;4.53;3.08;;;;;;;9.97;91.04;99465.59;4419851;32;20067;-77
2021/01/19 00:56:24;;;;;;;4.68;3.08;;;;;;;10.07;91.24;99453.94;4416243;32;20126;-76
2021/01/19 00:58:49;;;;;;;4.50;3.37;;;;;;;10.00;91.65;99451.41;4416559;32;20157;-78
2021/01/19 01:01:15;;;;;;;4.57;3.33;;;;;;;10.03;92.10;99444.84;4420087;32;20120;-76
2021/01/19 01:03:41;;;;;;;5.70;3.58;;;;;;;9.94;91.74;99438.44;4410610;32;20025;-76
2021/01/19 01:06:06;;;;;;;5.15;3.17;;;;;;;10.07;92.23;99430.69;4415649;32;20062;-76
2021/01/19 01:08:32;;;;;;;4.93;3.10;;;;;;;10.01;92.15;99422.06;4410772;32;20065;-77
2021/01/19 01:10:57;;;;;;;4.22;3.22;;;;;;;10.13;92.31;99415.53;4416005;32;20064;-76
2021/01/19 01:13:23;;;;;;;6.00;3.08;;;;;;;10.15;91.99;99414.31;4412783;32;20112;-76
2021/01/19 01:15:49;;;;;;;4.72;2.70;;;;;;;10.25;92.91;99396.19;4418424;32;20081;-77
2021/01/19 01:18:15;;;;;;;7.85;3.03;;;;;;;10.15;92.10;99403.06;4415303;32;20067;-77
2021/01/19 01:20:41;;;;;;;4.28;2.80;;;;;;;10.21;92.01;99390.72;4418366;32;20045;-76
2021/01/19 01:23:08;;;;;;;3.70;2.55;;;;;;;10.16;91.91;99376.50;4417575;32;20045;-75
2021/01/19 01:25:33;;;;;;;3.55;2.70;;;;;;;10.17;91.82;99370.41;4415612;32;20033;-76
2021/01/19 01:28:00;;;;;;;4.37;2.87;;;;;;;10.12;92.38;99379.47;4416460;32;20558;-75
2021/01/19 01:30:25;;;;;;;2.90;2.40;;;;;;;10.20;92.43;99363.84;4410527;32;20052;-76
2021/01/19 01:32:51;;;;;;;3.55;2.37;;;;;;;10.30;92.71;99359.78;4418130;32;20030;-77
2021/01/19 01:35:19;;;;;;;2.92;2.12;;;;;;;10.36;91.94;99359.94;4417898;32;20363;-77
2021/01/19 01:37:48;;;;;;;2.65;2.05;;;;;;;10.46;91.27;99348.19;4412792;32;21659;-77
2021/01/19 01:40:19;;;;;;;2.90;2.30;;;;;;;10.48;92.24;99344.91;4408476;32;20042;-76
2021/01/19 01:42:45;;;;;;;3.78;2.03;;;;;;;10.50;92.65;99331.97;4413995;32;20038;-75
2021/01/19 01:45:15;;;;;;;2.53;1.77;;;;;;;10.45;91.93;99326.97;4416462;32;20074;-75
2021/01/19 01:47:41;;;;;;;4.28;2.05;;;;;;;10.59;91.90;99331.16;4414358;32;20038;-75
2021/01/19 01:50:09;;;;;;;2.10;1.77;;;;;;;10.62;91.15;99330.22;4416304;32;20068;-76
2021/01/19 01:52:35;;;;;;;2.03;1.67;;;;;;;10.69;91.10;99332.69;4417475;32;20073;-75
2021/01/19 01:55:01;;;;;;;1.83;1.40;;;;;;;10.65;90.85;99327.22;4415769;32;20070;-75
2021/01/19 01:57:27;;;;;;;1.77;1.40;;;;;;;10.67;91.21;99319.09;4418226;32;20030;-76
2021/01/19 01:59:58;;;;;;;1.33;0.98;;;;;;;10.73;91.62;99311.56;4417495;32;20049;-75
2021/01/19 02:02:24;;;;;;;1.33;1.15;;;;;;;10.71;91.52;99310.50;4417843;32;20017;-74
2021/01/19 02:04:50;;;;;;;1.20;0.90;;;;;;;10.70;91.50;99301.28;4416058;32;20408;-76
2021/01/19 02:10:02;;;;;;;1.25;0.88;;;;;;;10.85;91.70;99296.53;3980694;32;15147409;-76
2021/01/19 02:12:37;;;;;;;1.45;0.80;;;;;;;10.76;91.96;99285.31;4443787;32;20020;-76
2021/01/19 02:15:06;;;;;;;1.05;0.85;;;;;;;10.85;92.09;99287.28;4445373;32;20074;-77
2021/01/19 02:17:56;;;;;;;1.30;0.88;;;;;;;10.88;92.25;99273.06;4444415;32;20073;-75
2021/01/19 02:23:38;;;;;;;1.20;0.60;;;;;;;11.27;89.30;99271.13;3990314;32;15022582;-78
2021/01/19 02:29:09;;;;;;;2.28;0.60;;;;;;;11.24;90.03;99269.28;3988591;32;15022899;-77
2021/01/19 02:35:06;;;;;;;1.45;0.60;;;;;;;11.32;89.44;99245.91;3976156;32;15025863;-75
2021/01/19 02:37:39;;;;;;;6.05;0.60;;;;;;;11.32;89.44;99245.91;4428710;32;20097;-77
2021/01/19 02:42:55;;;;;;;1.48;0.50;;;;;;;11.05;91.63;99239.69;3988335;32;15026785;-76
2021/01/19 02:45:22;;;;;;;0.50;0.50;;;;;;;10.98;91.14;99237.97;4438423;32;20037;-77
2021/01/19 02:47:47;;;;;;;0.80;0.77;;;;;;;10.89;90.01;99231.63;4441114;32;20030;-76
2021/01/19 02:50:13;;;;;;;1.90;0.93;;;;;;;11.07;92.07;99231.50;4440789;32;20079;-75
2021/01/19 02:52:41;;;;;;;0.85;0.50;;;;;;;11.05;91.63;99231.22;4435869;32;20095;-75
2021/01/19 02:55:08;;;;;;;0.85;0.45;;;;;;;10.97;91.59;99199.84;4437353;32;20151;-75
2021/01/19 03:00:14;;;;;;;0.70;0.45;;;;;;;11.66;91.24;99224.88;3986287;32;15023784;-75
2021/01/19 03:02:44;;;;;;;1.40;0.50;;;;;;;11.66;91.24;99224.88;4438281;32;20122;-76
2021/01/19 03:05:12;;;;;;;1.20;0.52;;;;;;;11.15;90.61;99218.66;4436015;32;20037;-74
2021/01/19 03:07:43;;;;;;;0.93;0.50;;;;;;;11.17;91.31;99210.50;4436318;32;20112;-76
2021/01/19 03:10:11;;;;;;;0.77;0.50;;;;;;;11.24;91.97;99210.16;4439274;32;20060;-77
2021/01/19 03:12:40;;;;;;;0.55;0.40;;;;;;;11.17;91.26;99211.28;4435299;32;20115;-77
2021/01/19 03:15:07;;;;;;;0.68;0.40;;;;;;;11.15;90.80;99207.38;4439431;32;20086;-75
2021/01/19 03:17:33;;;;;;;0.77;0.50;;;;;;;11.22;92.63;99201.37;4438678;32;20083;-77
2021/01/19 03:19:58;;;;;;;2.50;0.43;;;;;;;11.26;92.66;99196.38;4437483;32;20041;-76
2021/01/19 03:22:24;;;;;;;0.90;0.40;;;;;;;11.08;89.72;99196.50;4440134;32;20063;-76
2021/01/19 03:24:50;;;;;;;1.17;0.30;;;;;;;10.99;90.31;99182.47;4437497;32;20547;-77
2021/01/19 03:27:16;;;;;;;0.90;0.40;;;;;;;11.05;91.85;99191.81;4433141;32;20042;-76
2021/01/19 03:29:42;;;;;;;1.67;0.52;;;;;;;11.17;92.76;99188.00;4436255;32;20071;-77
2021/01/19 03:32:08;;;;;;;1.23;0.52;;;;;;;11.07;92.76;99184.44;4435669;32;20063;-77
2021/01/19 03:34:34;;;;;;;1.92;0.40;;;;;;;11.05;92.82;99194.63;4441020;32;20038;-76
2021/01/19 03:37:00;;;;;;;0.98;0.30;;;;;;;11.19;93.20;99182.62;4437973;32;20034;-75
2021/01/19 03:39:26;;;;;;;0.50;0.40;;;;;;;11.30;93.51;99186.50;4434274;32;20081;-75
2021/01/19 03:41:52;;;;;;;1.48;0.30;;;;;;;11.28;92.11;99183.38;4439830;32;20095;-77
2021/01/19 03:44:17;;;;;;;0.95;0.40;;;;;;;11.26;91.38;99185.13;4435135;32;20096;-76
2021/01/19 03:46:43;;;;;;;0.45;0.40;;;;;;;11.25;91.21;99181.50;4438968;32;20608;-77
2021/01/19 03:49:09;;;;;;;1.85;0.73;;;;;;;11.31;92.12;99185.22;4436535;32;20042;-75
2021/01/19 03:51:35;;;;;;;1.10;0.70;;;;;;;11.30;91.78;99183.69;4432998;32;20033;-77
2021/01/19 03:54:00;;;;;;;1.73;0.70;;;;;;;11.39;93.20;99185.63;4434743;32;20066;-76
2021/01/19 03:56:26;;;;;;;1.02;0.70;;;;;;;11.39;91.78;99188.44;4437789;32;20407;-75
2021/01/19 03:58:52;;;;;;;3.90;0.60;;;;;;;11.43;92.66;99180.59;4434864;32;20415;-77
2021/01/19 04:01:17;;;;;;;1.27;0.80;;;;;;;11.48;93.16;99179.94;4434592;32;20037;-77
2021/01/19 04:03:44;;;;;;;1.27;0.70;;;;;;;11.51;92.98;99181.78;4432860;32;20073;-77
2021/01/19 04:06:10;;;;;;;1.00;0.90;;;;;;;11.50;92.51;99183.03;4433288;32;20056;-74
2021/01/19 04:08:37;;;;;;;0.93;0.55;;;;;;;11.50;92.00;99183.03;4438437;32;20533;-75
2021/01/19 04:11:04;;;;;;;1.12;0.75;;;;;;;11.45;91.32;99192.91;4423973;32;20099;-75
2021/01/19 04:13:30;;;;;;;3.70;1.37;;;;;;;11.21;89.17;99192.19;4426437;32;20415;-76
2021/01/19 04:15:57;;;;;;;3.30;1.20;;;;;;;11.24;91.11;99190.44;4429177;32;20018;-75
2021/01/19 04:18:24;;;;;;;1.50;1.25;;;;;;;11.34;92.59;99187.06;4423736;32;20437;-76
2021/01/19 04:20:50;;;;;;;2.95;1.90;;;;;;;11.35;92.54;99177.34;4423128;32;20166;-76
2021/01/19 04:23:16;;;;;;;1.85;1.45;;;;;;;11.43;93.31;99180.59;4428341;32;20057;-74
2021/01/19 04:25:44;;;;;;;4.45;1.67;;;;;;;11.46;93.15;99169.16;4426221;32;20710;-76
2021/01/19 04:28:10;;;;;;;2.65;1.42;;;;;;;11.53;93.15;99180.03;4424883;32;20586;-76
2021/01/19 04:30:36;;;;;;;2.00;1.37;;;;;;;11.50;92.32;99172.53;4424934;32;20055;-77
2021/01/19 04:33:02;;;;;;;1.77;1.50;;;;;;;11.54;93.03;99178.00;4424638;32;20426;-76
2021/01/19 04:35:28;;;;;;;4.75;2.00;;;;;;;11.57;93.03;99171.41;4419398;32;20080;-76
2021/01/19 04:37:54;;;;;;;3.42;2.03;;;;;;;11.53;92.02;99177.22;4426928;32;20129;-77
2021/01/19 04:40:19;;;;;;;5.68;2.47;;;;;;;11.52;92.87;99175.66;4426539;32;20033;-77
2021/01/19 04:42:45;;;;;;;2.95;1.83;;;;;;;11.54;92.92;99178.75;4421469;32;20030;-76
2021/01/19 04:45:11;;;;;;;2.67;1.95;;;;;;;11.52;91.71;99183.31;4421386;32;20038;-76
2021/01/19 04:47:38;;;;;;;4.60;2.15;;;;;;;11.49;92.28;99189.94;4421639;32;20048;-77
2021/01/19 04:50:09;;;;;;;4.05;2.28;;;;;;;11.46;91.60;99193.69;4424314;32;20079;-76
2021/01/19 04:52:38;;;;;;;4.10;2.35;;;;;;;11.44;91.96;99191.38;4422646;32;20141;-77
2021/01/19 04:55:08;;;;;;;5.15;2.55;;;;;;;11.39;91.80;99186.37;4420740;32;20069;-78
2021/01/19 04:57:37;;;;;;;3.97;2.22;;;;;;;11.34;91.23;99180.66;4420493;32;20081;-78
2021/01/19 05:03:00;;;;;;;4.05;2.15;;;;;;;11.66;89.98;99200.28;3987120;32;15024018;-77
2021/01/19 05:08:27;;;;;;;3.47;2.40;;;;;;;11.67;90.96;99187.00;3989796;32;15023653;-77
2021/01/19 05:13:51;;;;;;;4.10;1.90;;;;;;;11.65;89.57;99190.28;3960374;32;15725870;-77
2021/01/19 05:16:19;;;;;;;2.45;1.60;;;;;;;11.65;89.57;99190.28;4434097;32;20026;-77
2021/01/19 05:18:46;;;;;;;1.65;1.27;;;;;;;11.20;92.12;99187.78;4436032;32;20061;-76
2021/01/19 05:21:12;;;;;;;3.03;2.25;;;;;;;11.13;91.66;99181.75;4428000;32;20034;-77
2021/01/19 05:23:38;;;;;;;2.80;1.42;;;;;;;11.20;93.28;99192.66;4440518;32;20033;-77
2021/01/19 05:26:06;;;;;;;1.45;1.10;;;;;;;11.13;92.24;99179.72;4442596;32;20425;-79
2021/01/19 05:28:35;;;;;;;6.82;1.20;;;;;;;11.12;92.25;99177.37;4435604;32;20068;-77
2021/01/19 05:31:04;;;;;;;0.80;0.80;;;;;;;11.03;91.62;99171.81;4427346;32;20073;-77
2021/01/19 05:33:30;;;;;;;2.72;1.05;;;;;;;11.17;93.25;99169.03;4421377;32;20034;-77
2021/01/19 05:36:11;;;;;;;5.53;1.00;;;;;;;11.16;92.53;99170.31;4429248;32;20025;-78
2021/01/19 05:38:54;;;;;;;2.53;1.73;;;;;;;11.06;89.59;99179.31;4427253;32;20429;-79
2021/01/19 05:41:41;;;;;;;3.78;1.77;;;;;;;11.16;92.62;99172.34;4426957;32;20336;-77
2021/01/19 05:44:26;;;;;;;3.67;1.80;;;;;;;11.12;91.68;99172.53;4425424;32;20070;-78
2021/01/19 05:52:09;;;;;;;4.75;2.65;;;;;;;11.68;91.47;99180.09;3987975;32;15023868;-77
2021/01/19 05:57:12;;;;;;;4.90;3.15;;;;;;;11.33;92.47;99176.28;3984775;32;15027613;-78
2021/01/19 05:59:40;;;;;;;4.87;2.67;;;;;;;11.29;92.97;99170.06;4442784;32;20559;-76
2021/01/19 06:02:09;;;;;;;7.10;3.08;;;;;;;11.30;92.54;99171.63;4443372;32;20045;-78
2021/01/19 06:07:12;;;;;;;6.00;2.80;;;;;;;11.49;88.46;99175.84;3987279;32;15024153;-77
2021/01/19 06:09:39;;;;;;;6.72;2.83;;;;;;;11.49;88.46;99175.84;4440596;32;20033;-77
2021/01/19 06:12:06;;;;;;;3.92;2.53;;;;;;;11.05;91.25;99170.06;4442992;32;20033;-77
2021/01/19 06:14:33;;;;;;;3.72;2.05;;;;;;;10.97;91.86;99165.28;4436750;32;20045;-79
2021/01/19 06:17:20;;;;;;;5.55;2.95;;;;;;;10.79;89.21;99173.84;4442020;32;20077;-76
2021/01/19 06:19:47;;;;;;;3.72;2.80;;;;;;;10.86;90.12;99176.31;4442611;32;20021;-75
2021/01/19 06:22:15;;;;;;;3.80;2.70;;;;;;;10.83;91.18;99163.97;4442520;32;20033;-75
2021/01/19 06:24:43;;;;;;;6.75;3.00;;;;;;;10.93;91.91;99161.88;4443635;32;20408;-78
2021/01/19 06:27:13;;;;;;;4.75;3.03;;;;;;;10.95;91.84;99165.75;4440776;32;20061;-76
2021/01/19 06:29:39;;;;;;;4.12;2.60;;;;;;;11.01;92.55;99165.88;4442620;32;20041;-78
2021/01/19 06:32:07;;;;;;;3.12;2.03;;;;;;;11.03;92.19;99164.16;4443665;32;20037;-76
2021/01/19 06:34:37;;;;;;;4.03;2.40;;;;;;;11.07;92.60;99166.78;4432659;32;20044;-77
2021/01/19 06:37:03;;;;;;;3.40;1.73;;;;;;;11.01;91.21;99166.66;4429917;32;20067;-75
2021/01/19 06:39:39;;;;;;;3.60;2.17;;;;;;;10.95;90.45;99167.81;4428105;32;20132;-76
2021/01/19 06:42:09;;;;;;;4.15;2.08;;;;;;;10.98;91.35;99167.63;4425601;32;20424;-77
2021/01/19 06:44:39;;;;;;;4.87;2.22;;;;;;;11.02;91.52;99164.63;4427807;32;20041;-76
2021/01/19 06:47:06;;;;;;;3.55;2.03;;;;;;;10.90;89.83;99162.84;4427515;32;20060;-77
2021/01/19 06:49:34;;;;;;;3.72;2.47;;;;;;;10.89;90.40;99164.84;4427847;32;20079;-77
2021/01/19 06:52:04;;;;;;;7.43;4.40;;;;;;;10.92;90.36;99160.34;4428904;32;20022;-78
2021/01/19 06:54:40;;;;;;;10.40;6.55;;;;;;;10.92;89.85;99161.09;4426800;32;20061;-75
2021/01/19 06:57:29;;;;;;;7.00;4.40;;;;;;;10.87;91.02;99160.97;4428293;32;20068;-78
2021/01/19 07:02:39;;;;;;;4.65;2.70;;;;;;;11.33;90.66;99153.75;3986471;32;15024807;-76
2021/01/19 07:05:09;;;;;;;8.30;3.55;;;;;;;11.33;90.66;99153.75;4445245;32;20025;-78
2021/01/19 07:07:41;;;;;;;3.67;2.70;;;;;;;10.91;91.25;99147.50;4444210;32;20053;-77
2021/01/19 07:13:00;;;;;;;9.73;6.18;;;;;;;11.44;91.49;99156.78;3959431;32;15724632;-77
2021/01/19 07:16:05;;;;;;;9.07;5.30;;;;;;;11.44;91.49;99156.78;4439619;32;20021;-77
2021/01/19 07:21:09;;;;;;;9.65;4.75;;;;;;;11.51;92.49;99156.44;3987073;32;15022656;-76
2021/01/19 07:26:36;;;;;;;9.13;4.72;;;;;;;11.55;92.44;99143.72;3986393;32;15023277;-78
2021/01/19 07:29:02;;;;;;;12.88;5.95;;;;;;;11.55;92.44;99143.72;4438898;32;20066;-77
2021/01/19 07:31:28;;;;;;;11.63;6.95;;;;;;;11.10;92.89;99151.75;4437608;32;20022;-75
2021/01/19 07:33:57;;;;;;;12.43;6.50;;;;;;;11.06;92.67;99148.34;4431127;32;20064;-79
2021/01/19 07:36:25;;;;;;;16.62;6.43;;;;;;;11.03;92.46;99138.03;4426999;32;20041;-77
2021/01/19 07:38:51;;;;;;;9.75;5.72;;;;;;;11.08;94.00;99134.56;4420812;32;20411;-80
2021/01/19 07:41:34;;;;;;;13.55;5.75;;;;;;;11.11;93.76;99139.25;4425459;32;20108;-78
2021/01/19 07:44:02;;;;;;;9.82;4.95;;;;;;;11.18;93.75;99145.28;4419616;32;20423;-75
2021/01/19 07:46:30;;;;;;;7.80;4.87;;;;;;;11.15;93.19;99140.63;4422157;32;20093;-77
2021/01/19 07:49:05;;;;;;;8.80;5.30;;;;;;;11.18;93.32;99142.47;4424743;32;20100;-79
2021/01/19 07:51:48;;;;;;;7.80;4.50;;;;;;;11.19;93.22;99129.16;4424541;32;20090;-76
2021/01/19 07:54:26;;;;;;;12.05;5.10;;;;;;;11.15;92.55;99120.12;4426795;32;20145;-79
2021/01/19 07:56:52;;;;;;;9.93;5.22;;;;;;;11.07;92.26;99139.41;4424409;32;20374;-78
2021/01/19 07:59:19;;;;;;;9.43;4.97;;;;;;;11.06;92.36;99135.06;4420302;32;20337;-76
2021/01/19 08:01:55;;;;;;;8.45;5.12;;;;;;;11.06;92.48;99139.87;4423905;32;20092;-76
2021/01/19 08:04:36;;;;;;;;;;;;;;;11.11;92.93;99139.25;4425871;32;20019;-77
2021/01/19 08:07:19;;;;;;;8.65;4.15;;;;;;;11.17;92.84;99148.56;4425500;32;19941;-77
2021/01/19 08:09:46;;;;;;;10.50;5.07;;;;;;;11.08;91.59;99149.41;4423042;32;20124;-77
2021/01/19 08:12:14;;;;;;;11.63;5.85;;;;;;;11.06;92.28;99148.34;4421501;32;20397;-76
2021/01/19 08:14:45;;;;;;;15.45;5.97;;;;;;;11.13;93.43;99145.16;4424315;32;20095;-77
2021/01/19 08:17:11;;;;;;;7.30;4.62;;;;;;;11.22;93.92;99148.69;4422008;32;20022;-76
2021/01/19 08:19:39;;;;;;;9.30;4.10;;;;;;;11.21;92.82;99137.91;4420844;32;20478;-78
2021/01/19 08:22:05;;;;;;;5.10;2.92;;;;;;;11.10;90.90;99137.66;4422760;32;20110;-79
2021/01/19 08:24:31;;;;;;;5.85;3.20;;;;;;;11.03;90.67;99140.84;4421792;32;20129;-78
2021/01/19 08:26:57;;;;;;;6.55;3.47;;;;;;;10.95;89.84;99142.50;4425633;32;20164;-79
2021/01/19 08:29:24;;;;;;;11.55;3.47;;;;;;;11.06;91.80;99142.72;4417662;32;20421;-76
2021/01/19 08:34:30;;;;;;;4.72;1.70;;;;;;;11.37;88.95;99155.13;3976768;32;15028284;-78
2021/01/19 08:36:57;;;;;;;3.58;1.00;;;;;;;11.37;88.95;99155.13;4433485;32;20076;-78
2021/01/19 08:39:23;;;;;;;3.42;1.40;;;;;;;10.90;90.86;99151.56;4438354;32;20022;-76
2021/01/19 08:41:52;;;;;;;5.93;0.77;;;;;;;10.96;92.04;99141.22;4435446;32;20050;-77
2021/01/19 08:44:18;;;;;;;3.30;0.55;;;;;;;10.81;91.04;99137.56;4431998;32;20400;-79
2021/01/19 08:46:45;;;;;;;6.93;2.00;;;;;;;10.54;90.29;99123.66;4438578;32;20037;-76
2021/01/19 08:49:13;;;;;;;8.57;4.90;;;;;;;10.57;91.34;99120.69;4435959;32;20057;-78
2021/01/19 08:51:42;;;;;;;9.55;6.07;;;;;;;10.50;91.65;99123.84;4433110;32;20066;-76
2021/01/19 08:54:09;;;;;;;15.45;8.25;;;;;;;10.42;91.59;99113.41;4438362;32;20188;-78
2021/01/19 08:56:40;;;;;;;16.45;9.38;;;;;;;10.33;91.69;99116.25;4431493;32;20597;-78
2021/01/19 08:59:06;;;;;;;28.20;13.52;;;;;;;10.28;92.08;99119.75;4421443;32;20613;-75
2021/01/19 09:01:31;;;;;;;15.18;9.38;;;;;;;10.43;93.21;99112.94;4430252;32;20033;-75
2021/01/19 09:04:00;;;;;;;9.05;4.97;;;;;;;10.44;93.17;99122.16;4430603;32;20109;-79
2021/01/19 09:06:26;;;;;;;6.20;4.62;;;;;;;10.41;93.09;99121.09;4431944;32;20095;-79
2021/01/19 09:08:56;;;;;;;11.12;5.10;;;;;;;10.41;93.17;99123.91;4441070;32;20030;-79
2021/01/19 09:11:29;;;;;;;11.18;6.60;;;;;;;10.57;94.09;99143.19;4428980;32;20465;-77
2021/01/19 09:14:02;;;;;;;15.38;7.65;;;;;;;10.65;93.74;99141.56;4434977;32;20076;-81
2021/01/19 09:16:31;;;;;;;11.73;6.72;;;;;;;10.78;94.51;99139.31;4434502;32;20017;-80
2021/01/19 09:18:59;;;;;;;10.60;5.95;;;;;;;10.91;94.75;99144.69;4434998;32;20131;-78
2021/01/19 09:21:26;;;;;;;10.30;5.70;;;;;;;10.94;93.67;99130.44;4437614;32;20069;-79
2021/01/19 09:23:52;;;;;;;9.07;4.40;;;;;;;11.02;93.65;99128.03;4435132;32;20387;-80
2021/01/19 09:26:18;;;;;;;11.68;4.12;;;;;;;11.09;94.01;99120.00;4438172;32;20116;-78
2021/01/19 09:28:44;;;;;;;7.47;5.00;;;;;;;11.11;93.44;99120.28;4438485;32;20059;-78
2021/01/19 09:33:53;;;;;;;9.00;5.12;;;;;;;11.18;90.97;99093.81;3979138;32;15027113;-78
2021/01/19 09:36:20;;;;;;;8.63;4.70;;;;;;;11.18;90.97;99093.81;4433999;32;20029;-81
2021/01/19 09:38:51;;;;;;;10.50;4.90;;;;;;;10.84;93.48;99097.22;4431240;32;20101;-80
2021/01/19 09:41:19;;;;;;;6.62;3.97;;;;;;;10.87;93.84;99088.59;4428532;32;20073;-82
2021/01/19 09:43:49;;;;;;;6.12;3.95;;;;;;;10.84;93.51;99078.31;4434452;32;20045;-80
2021/01/19 09:46:17;;;;;;;5.70;3.87;;;;;;;10.91;93.31;99079.97;4432427;32;20538;-80
2021/01/19 09:48:47;;;;;;;6.70;3.37;;;;;;;10.93;93.83;99072.59;4433770;32;20395;-80
2021/01/19 09:51:13;;;;;;;11.68;3.55;;;;;;;10.98;93.97;99069.09;4432365;32;20400;-81
2021/01/19 09:53:39;;;;;;;9.20;3.60;;;;;;;11.02;93.64;99069.69;4431127;32;20109;-79
2021/01/19 09:56:20;;;;;;;10.82;5.32;;;;;;;11.03;93.31;99071.28;4434465;32;20045;-80
2021/01/19 09:58:46;;;;;;;10.02;6.68;;;;;;;11.03;92.77;99064.84;4432061;32;20054;-82
2021/01/19 10:01:27;;;;;;;13.57;6.65;;;;;;;11.06;92.95;99069.53;4436900;32;20410;-83
2021/01/19 10:03:57;;;;;;;11.02;7.32;;;;;;;11.09;92.98;99058.09;4432145;32;20081;-79
2021/01/19 10:06:25;;;;;;;10.07;5.60;;;;;;;11.03;92.88;99054.38;4429850;32;20095;-77
2021/01/19 10:08:53;;;;;;;12.65;6.60;;;;;;;11.01;92.10;99056.87;4427299;32;20105;-79
2021/01/19 10:11:37;;;;;;;9.75;6.10;;;;;;;11.16;93.92;99068.19;4434862;32;20089;-78
2021/01/19 10:14:18;;;;;;;14.20;7.45;;;;;;;11.22;93.70;99050.13;4434420;32;20731;-80
2021/01/19 10:16:46;;;;;;;10.32;7.10;;;;;;;11.32;94.16;99048.03;4431432;32;20358;-79
2021/01/19 10:19:28;;;;;;;8.85;5.75;;;;;;;11.23;92.56;99048.09;4438863;32;20003;-79
2021/01/19 10:21:57;;;;;;;11.05;5.68;;;;;;;11.25;92.52;99046.34;4441362;32;20073;-79
2021/01/19 10:24:24;;;;;;;11.73;5.97;;;;;;;11.30;93.26;99039.28;4428158;32;20018;-80
2021/01/19 10:27:07;;;;;;;9.35;4.87;;;;;;;11.43;94.10;99045.41;4438071;32;20026;-77
2021/01/19 10:29:38;;;;;;;9.30;3.95;;;;;;;11.43;91.07;99045.41;4432773;32;20093;-78
2021/01/19 10:32:08;;;;;;;6.65;4.35;;;;;;;11.42;90.32;99035.41;4433644;32;20096;-79
2021/01/19 10:34:34;;;;;;;7.72;2.17;;;;;;;11.48;89.52;99041.91;4435794;32;20065;-79
2021/01/19 10:37:02;;;;;;;4.37;1.30;;;;;;;11.41;89.41;99037.44;4434314;32;21531;-79
2021/01/19 10:39:30;;;;;;;2.53;0.88;;;;;;;11.58;89.78;99018.00;4436907;32;20021;-80
2021/01/19 10:41:57;;;;;;;1.83;0.50;;;;;;;11.69;88.63;99027.44;4432500;32;20037;-79
2021/01/19 10:44:24;;;;;;;3.03;1.00;;;;;;;11.92;87.80;99022.94;4424592;32;20010;-80
2021/01/19 10:46:59;;;;;;;7.78;0.90;;;;;;;11.98;86.88;99018.97;4417264;32;20021;-79
2021/01/19 10:49:28;;;;;;;5.12;0.80;;;;;;;12.18;86.93;99017.44;4413598;32;20502;-75
2021/01/19 10:51:54;;;;;;;5.72;1.10;;;;;;;12.24;84.98;99018.31;4411451;32;20116;-76
2021/01/19 10:54:20;;;;;;;3.78;0.90;;;;;;;12.23;82.57;99005.44;4424740;32;20026;-79
2021/01/19 10:57:00;;;;;;;3.72;0.80;;;;;;;12.30;82.92;99008.63;4426637;32;20163;-77
2021/01/19 10:59:27;;;;;;;10.82;0.77;;;;;;;12.35;81.12;99019.22;4417101;32;20407;-77
2021/01/19 11:01:53;;;;;;;3.12;0.80;;;;;;;12.32;82.29;99003.28;4421108;32;20092;-76
2021/01/19 11:04:20;;;;;;;5.03;0.88;;;;;;;12.35;81.68;99007.16;4416853;32;20034;-78
2021/01/19 11:06:46;;;;;;;8.35;0.90;;;;;;;12.39;81.13;99002.87;4414775;32;20054;-80
2021/01/19 11:09:13;;;;;;;3.25;0.90;;;;;;;12.43;81.66;99008.31;4427898;32;20030;-80
2021/01/19 11:11:39;;;;;;;5.97;1.00;;;;;;;12.48;81.19;99011.19;4424842;32;20026;-78
2021/01/19 11:14:05;;;;;;;6.05;0.80;;;;;;;12.46;80.00;99004.50;4424956;32;20146;-81
2021/01/19 11:16:37;;;;;;;6.32;1.15;;;;;;;12.41;80.20;99019.28;4429418;32;20034;-78
2021/01/19 11:19:05;;;;;;;5.93;0.90;;;;;;;12.44;80.83;99010.63;4423694;32;20022;-79
2021/01/19 11:21:34;;;;;;;7.20;0.73;;;;;;;12.38;80.61;99009.78;4421114;32;20087;-80
2021/01/19 11:24:02;;;;;;;5.62;0.70;;;;;;;12.43;81.24;99006.28;4421122;32;20018;-76
2021/01/19 11:26:28;;;;;;;1.80;0.50;;;;;;;12.51;81.33;99000.94;4420857;32;20077;-81
2021/01/19 11:28:54;;;;;;;4.10;0.90;;;;;;;12.48;79.99;98991.44;4423192;32;20076;-82
2021/01/19 11:31:25;;;;;;;2.53;0.60;;;;;;;12.62;80.38;98996.25;4415853;32;20046;-77
2021/01/19 11:33:51;;;;;;;2.62;0.50;;;;;;;12.63;80.32;98986.50;4420502;32;20529;-78
2021/01/19 11:36:18;;;;;;;5.03;1.33;;;;;;;12.69;79.20;98998.62;4422420;32;20042;-80
2021/01/19 11:38:44;;;;;;;4.15;0.70;;;;;;;12.75;80.33;98985.38;4420126;32;20085;-77
2021/01/19 11:41:14;;;;;;;2.20;0.50;;;;;;;12.80;79.06;98981.06;4418869;32;20385;-77
2021/01/19 11:43:40;;;;;;;2.65;0.40;;;;;;;12.90;78.06;98980.41;4416104;32;20390;-77
2021/01/19 11:46:05;;;;;;;2.65;0.47;;;;;;;12.83;78.40;98983.69;4421648;32;20046;-75
2021/01/19 11:48:31;;;;;;;3.58;0.50;;;;;;;12.77;77.97;98973.59;4422085;32;20117;-78
2021/01/19 11:50:57;;;;;;;4.03;0.70;;;;;;;12.77;77.79;98985.66;4421520;32;20046;-79
2021/01/19 11:53:23;;;;;;;4.25;1.12;;;;;;;12.87;77.07;98972.94;4420805;32;20052;-81
2021/01/19 11:55:49;;;;;;;3.50;0.75;;;;;;;12.76;76.48;98966.41;4419930;32;20041;-80
2021/01/19 11:58:14;;;;;;;1.33;0.65;;;;;;;12.78;76.75;98967.44;4427528;32;20135;-76
2021/01/19 12:00:40;;;;;;;3.25;0.75;;;;;;;12.73;76.65;98962.50;4415795;32;20073;-77
2021/01/19 12:03:06;;;;;;;3.08;0.40;;;;;;;12.74;74.74;98966.09;4420365;32;20050;-76
2021/01/19 12:05:31;;;;;;;2.97;0.50;;;;;;;12.74;75.11;98957.66;4421576;32;20074;-76
2021/01/19 12:07:57;;;;;;;3.25;0.75;;;;;;;12.76;74.38;98950.22;4422248;32;20089;-77
2021/01/19 12:10:23;;;;;;;8.15;0.93;;;;;;;12.77;74.57;98962.28;4417814;32;20093;-78
2021/01/19 12:12:49;;;;;;;5.70;0.93;;;;;;;12.76;73.18;98958.69;4418132;32;20046;-77
2021/01/19 12:15:14;;;;;;;2.00;1.05;;;;;;;12.65;73.65;98961.41;4419590;32;20068;-78
2021/01/19 12:17:40;;;;;;;1.27;0.50;;;;;;;12.68;73.74;98973.72;4423314;32;20051;-76
2021/01/19 12:20:07;;;;;;;5.72;0.62;;;;;;;12.69;73.86;98936.56;4419585;32;20046;-77
2021/01/19 12:22:32;;;;;;;5.60;0.57;;;;;;;12.64;73.74;98953.44;4423147;32;20508;-76
2021/01/19 12:24:58;;;;;;;5.32;0.68;;;;;;;12.59;73.60;98942.84;4421251;32;20081;-76
2021/01/19 12:27:24;;;;;;;4.60;0.70;;;;;;;12.55;73.99;98940.22;4420097;32;20104;-76
2021/01/19 12:29:49;;;;;;;2.95;0.98;;;;;;;12.50;74.06;98943.00;4419510;32;20046;-75